sensor_id;sensor_type;location;lat;lon;timestamp;pressure;altitude;pressure_sealevel;temperature;humidity
6668;BME280;3370;47.712;9.082;2023-06-14T00:02:12;96457.09;;;15.55;45.91
6668;BME280;3370;47.712;9.082;2023-06-14T00:04:37;96460.16;;;15.60;46.00
6668;BME280;3370;47.712;9.082;2023-06-14T00:07:05;96457.34;;;15.63;45.37
6668;BME280;3370;47.712;9.082;2023-06-14T00:09:34;96461.78;;;15.61;45.55
6668;BME280;3370;47.712;9.082;2023-06-14T00:12:00;96455.56;;;15.52;45.85
6668;BME280;3370;47.712;9.082;2023-06-14T00:14:26;96462.47;;;15.51;45.34
6668;BME280;3370;47.712;9.082;2023-06-14T00:16:52;96456.84;;;15.46;45.82
6668;BME280;3370;47.712;9.082;2023-06-14T00:19:18;96457.16;;;15.42;45.89
6668;BME280;3370;47.712;9.082;2023-06-14T00:21:45;96461.06;;;15.47;45.93
6668;BME280;3370;47.712;9.082;2023-06-14T00:24:11;96458.94;;;15.41;46.06
6668;BME280;3370;47.712;9.082;2023-06-14T00:26:37;96457.25;;;15.29;46.47
6668;BME280;3370;47.712;9.082;2023-06-14T00:29:03;96455.47;;;15.29;46.64
6668;BME280;3370;47.712;9.082;2023-06-14T00:31:28;96449.81;;;15.24;46.00
6668;BME280;3370;47.712;9.082;2023-06-14T00:33:54;96449.69;;;15.26;46.50
6668;BME280;3370;47.712;9.082;2023-06-14T00:36:20;96448.66;;;15.28;46.17
6668;BME280;3370;47.712;9.082;2023-06-14T00:38:46;96452.56;;;15.34;45.91
6668;BME280;3370;47.712;9.082;2023-06-14T00:41:12;96446.19;;;15.27;46.49
6668;BME280;3370;47.712;9.082;2023-06-14T00:43:37;96445.50;;;15.36;45.94
6668;BME280;3370;47.712;9.082;2023-06-14T00:46:03;96445.31;;;15.15;45.92
6668;BME280;3370;47.712;9.082;2023-06-14T00:48:29;96443.75;;;15.01;46.27
6668;BME280;3370;47.712;9.082;2023-06-14T00:50:57;96451.03;;;15.07;46.96
6668;BME280;3370;47.712;9.082;2023-06-14T00:53:24;96444.88;;;14.97;47.08
6668;BME280;3370;47.712;9.082;2023-06-14T00:55:50;96444.56;;;14.78;46.92
6668;BME280;3370;47.712;9.082;2023-06-14T00:58:16;96445.38;;;14.78;46.94
6668;BME280;3370;47.712;9.082;2023-06-14T01:00:42;96435.59;;;14.70;46.83
6668;BME280;3370;47.712;9.082;2023-06-14T01:03:08;96440.38;;;14.88;46.80
6668;BME280;3370;47.712;9.082;2023-06-14T01:05:38;96427.72;;;14.96;47.15
6668;BME280;3370;47.712;9.082;2023-06-14T01:08:21;96431.72;;;15.00;46.80
6668;BME280;3370;47.712;9.082;2023-06-14T01:11:00;96433.09;;;14.93;47.23
6668;BME280;3370;47.712;9.082;2023-06-14T01:13:33;96433.44;;;14.88;46.46
6668;BME280;3370;47.712;9.082;2023-06-14T01:16:00;96427.72;;;14.96;45.85
6668;BME280;3370;47.712;9.082;2023-06-14T01:18:28;96425.78;;;14.87;46.30
6668;BME280;3370;47.712;9.082;2023-06-14T01:20:55;96432.56;;;14.76;46.95
6668;BME280;3370;47.712;9.082;2023-06-14T01:23:23;96424.94;;;14.62;46.77
6668;BME280;3370;47.712;9.082;2023-06-14T01:25:50;96428.69;;;14.58;47.30
6668;BME280;3370;47.712;9.082;2023-06-14T01:28:20;96425.16;;;14.59;47.40
6668;BME280;3370;47.712;9.082;2023-06-14T01:30:53;96431.81;;;14.50;48.15
6668;BME280;3370;47.712;9.082;2023-06-14T01:33:26;96431.81;;;14.50;48.28
6668;BME280;3370;47.712;9.082;2023-06-14T01:35:53;96433.03;;;14.45;48.29
6668;BME280;3370;47.712;9.082;2023-06-14T01:38:23;96427.66;;;14.48;48.56
6668;BME280;3370;47.712;9.082;2023-06-14T01:40:50;96428.94;;;14.29;49.17
6668;BME280;3370;47.712;9.082;2023-06-14T01:43:18;96423.59;;;14.19;49.95
6668;BME280;3370;47.712;9.082;2023-06-14T01:45:47;96417.56;;;14.32;49.41
6668;BME280;3370;47.712;9.082;2023-06-14T01:48:14;96408.06;;;14.32;48.72
6668;BME280;3370;47.712;9.082;2023-06-14T01:50:41;96411.19;;;14.12;49.96
6668;BME280;3370;47.712;9.082;2023-06-14T01:53:10;96412.97;;;13.98;49.88
6668;BME280;3370;47.712;9.082;2023-06-14T01:55:36;96413.63;;;13.89;50.44
6668;BME280;3370;47.712;9.082;2023-06-14T01:58:09;96405.53;;;13.81;50.36
6668;BME280;3370;47.712;9.082;2023-06-14T02:00:35;96407.53;;;13.65;50.85
6668;BME280;3370;47.712;9.082;2023-06-14T02:03:02;96405.66;;;13.41;50.12
6668;BME280;3370;47.712;9.082;2023-06-14T02:05:30;96414.41;;;13.26;50.22
6668;BME280;3370;47.712;9.082;2023-06-14T02:07:56;96419.03;;;13.20;51.64
6668;BME280;3370;47.712;9.082;2023-06-14T02:10:22;96418.16;;;13.34;50.90
6668;BME280;3370;47.712;9.082;2023-06-14T02:12:48;96420.13;;;13.44;50.99
6668;BME280;3370;47.712;9.082;2023-06-14T02:15:13;96424.69;;;13.40;52.21
6668;BME280;3370;47.712;9.082;2023-06-14T02:17:43;96425.06;;;13.34;52.29
6668;BME280;3370;47.712;9.082;2023-06-14T02:20:10;96425.41;;;13.02;52.30
6668;BME280;3370;47.712;9.082;2023-06-14T02:22:36;96430.16;;;13.08;52.58
6668;BME280;3370;47.712;9.082;2023-06-14T02:25:02;96427.25;;;13.00;52.83
6668;BME280;3370;47.712;9.082;2023-06-14T02:27:28;96423.53;;;13.04;52.86
6668;BME280;3370;47.712;9.082;2023-06-14T02:29:54;96422.88;;;12.88;53.86
6668;BME280;3370;47.712;9.082;2023-06-14T02:32:20;96432.97;;;12.91;53.61
6668;BME280;3370;47.712;9.082;2023-06-14T02:34:45;96431.22;;;12.78;54.31
6668;BME280;3370;47.712;9.082;2023-06-14T02:37:18;96413.16;;;12.78;53.96
6668;BME280;3370;47.712;9.082;2023-06-14T02:39:43;96424.75;;;12.85;53.82
6668;BME280;3370;47.712;9.082;2023-06-14T02:42:09;96421.69;;;13.06;53.60
6668;BME280;3370;47.712;9.082;2023-06-14T02:44:36;96426.41;;;12.99;52.98
6668;BME280;3370;47.712;9.082;2023-06-14T02:47:03;96422.66;;;12.91;53.94
6668;BME280;3370;47.712;9.082;2023-06-14T02:49:28;96425.19;;;12.78;54.16
6668;BME280;3370;47.712;9.082;2023-06-14T02:51:55;96427.16;;;12.74;54.26
6668;BME280;3370;47.712;9.082;2023-06-14T02:54:21;96435.44;;;12.79;54.23
6668;BME280;3370;47.712;9.082;2023-06-14T02:56:47;96432.88;;;12.92;53.85
6668;BME280;3370;47.712;9.082;2023-06-14T02:59:13;96432.22;;;12.76;54.44
6668;BME280;3370;47.712;9.082;2023-06-14T03:01:40;96438.06;;;12.65;54.70
6668;BME280;3370;47.712;9.082;2023-06-14T03:04:09;96433.97;;;12.75;54.82
6668;BME280;3370;47.712;9.082;2023-06-14T03:06:36;96432.19;;;13.03;53.56
6668;BME280;3370;47.712;9.082;2023-06-14T03:09:03;96433.84;;;12.91;53.68
6668;BME280;3370;47.712;9.082;2023-06-14T03:11:33;96442.75;;;12.73;54.67
6668;BME280;3370;47.712;9.082;2023-06-14T03:14:00;96432.47;;;12.85;54.36
6668;BME280;3370;47.712;9.082;2023-06-14T03:16:25;96440.59;;;12.79;54.52
6668;BME280;3370;47.712;9.082;2023-06-14T03:18:54;96441.81;;;12.74;55.02
6668;BME280;3370;47.712;9.082;2023-06-14T03:21:20;96439.88;;;12.77;54.66
6668;BME280;3370;47.712;9.082;2023-06-14T03:23:46;96442.16;;;12.82;54.61
6668;BME280;3370;47.712;9.082;2023-06-14T03:26:13;96439.19;;;12.61;55.48
6668;BME280;3370;47.712;9.082;2023-06-14T03:28:42;96442.84;;;12.71;55.16
6668;BME280;3370;47.712;9.082;2023-06-14T03:31:08;96449.28;;;12.78;54.53
6668;BME280;3370;47.712;9.082;2023-06-14T03:33:34;96450.91;;;12.79;54.66
6668;BME280;3370;47.712;9.082;2023-06-14T03:36:01;96459.97;;;12.72;55.11
6668;BME280;3370;47.712;9.082;2023-06-14T03:38:27;96456.78;;;12.81;54.94
6668;BME280;3370;47.712;9.082;2023-06-14T03:40:52;96461.63;;;12.73;55.20
6668;BME280;3370;47.712;9.082;2023-06-14T03:43:18;96467.91;;;12.69;55.32
6668;BME280;3370;47.712;9.082;2023-06-14T03:45:44;96469.00;;;12.65;55.62
6668;BME280;3370;47.712;9.082;2023-06-14T03:48:10;96471.50;;;12.66;55.09
6668;BME280;3370;47.712;9.082;2023-06-14T03:50:36;96479.31;;;12.65;55.73
6668;BME280;3370;47.712;9.082;2023-06-14T03:53:04;96475.66;;;12.69;55.71
6668;BME280;3370;47.712;9.082;2023-06-14T03:55:30;96473.41;;;12.77;55.10
6668;BME280;3370;47.712;9.082;2023-06-14T03:57:59;96470.78;;;12.92;54.37
6668;BME280;3370;47.712;9.082;2023-06-14T04:00:25;96480.50;;;13.01;54.29
6668;BME280;3370;47.712;9.082;2023-06-14T04:02:51;96487.53;;;12.99;54.93
6668;BME280;3370;47.712;9.082;2023-06-14T04:05:17;96489.38;;;12.97;55.27
6668;BME280;3370;47.712;9.082;2023-06-14T04:07:45;96496.09;;;12.99;55.56
6668;BME280;3370;47.712;9.082;2023-06-14T04:10:12;96492.69;;;12.99;55.37
6668;BME280;3370;47.712;9.082;2023-06-14T04:12:39;96504.88;;;12.97;55.12
6668;BME280;3370;47.712;9.082;2023-06-14T04:15:06;96501.78;;;13.04;55.07
6668;BME280;3370;47.712;9.082;2023-06-14T04:17:33;96497.25;;;13.08;54.89
6668;BME280;3370;47.712;9.082;2023-06-14T04:20:00;96505.72;;;13.10;54.74
6668;BME280;3370;47.712;9.082;2023-06-14T04:22:26;96501.50;;;13.09;55.27
6668;BME280;3370;47.712;9.082;2023-06-14T04:24:56;96511.53;;;13.14;55.10
6668;BME280;3370;47.712;9.082;2023-06-14T04:27:25;96509.03;;;13.12;55.16
6668;BME280;3370;47.712;9.082;2023-06-14T04:29:55;96514.97;;;13.14;56.04
6668;BME280;3370;47.712;9.082;2023-06-14T04:32:29;96518.91;;;13.20;56.22
6668;BME280;3370;47.712;9.082;2023-06-14T04:35:07;96521.53;;;13.33;56.75
6668;BME280;3370;47.712;9.082;2023-06-14T04:37:33;96519.78;;;13.33;56.56
6668;BME280;3370;47.712;9.082;2023-06-14T04:39:59;96521.53;;;13.33;56.42
6668;BME280;3370;47.712;9.082;2023-06-14T04:42:25;96513.59;;;13.36;56.57
6668;BME280;3370;47.712;9.082;2023-06-14T04:44:55;96522.50;;;13.45;56.41
6668;BME280;3370;47.712;9.082;2023-06-14T04:47:21;96524.78;;;13.49;56.93
6668;BME280;3370;47.712;9.082;2023-06-14T04:49:47;96518.91;;;13.47;57.29
6668;BME280;3370;47.712;9.082;2023-06-14T04:52:13;96521.69;;;13.57;57.46
6668;BME280;3370;47.712;9.082;2023-06-14T04:54:42;96521.41;;;13.61;57.72
6668;BME280;3370;47.712;9.082;2023-06-14T04:57:11;96520.47;;;13.63;57.44
6668;BME280;3370;47.712;9.082;2023-06-14T04:59:43;96524.94;;;13.73;56.80
6668;BME280;3370;47.712;9.082;2023-06-14T05:02:11;96524.31;;;13.83;56.22
6668;BME280;3370;47.712;9.082;2023-06-14T05:04:37;96532.78;;;13.85;56.11
6668;BME280;3370;47.712;9.082;2023-06-14T05:07:09;96529.81;;;13.91;55.87
6668;BME280;3370;47.712;9.082;2023-06-14T05:09:36;96529.50;;;13.95;55.73
6668;BME280;3370;47.712;9.082;2023-06-14T05:12:03;96531.16;;;14.09;54.55
6668;BME280;3370;47.712;9.082;2023-06-14T05:14:29;96531.16;;;14.22;51.12
6668;BME280;3370;47.712;9.082;2023-06-14T05:16:55;96525.16;;;14.34;50.87
6668;BME280;3370;47.712;9.082;2023-06-14T05:19:20;96523.38;;;14.35;50.43
6668;BME280;3370;47.712;9.082;2023-06-14T05:21:47;96527.38;;;14.52;49.75
6668;BME280;3370;47.712;9.082;2023-06-14T05:24:14;96527.72;;;14.47;49.47
6668;BME280;3370;47.712;9.082;2023-06-14T05:26:40;96521.28;;;14.53;50.16
6668;BME280;3370;47.712;9.082;2023-06-14T05:29:06;96529.16;;;14.51;50.24
6668;BME280;3370;47.712;9.082;2023-06-14T05:31:32;96535.50;;;14.60;50.73
6668;BME280;3370;47.712;9.082;2023-06-14T05:33:58;96533.41;;;14.65;50.66
6668;BME280;3370;47.712;9.082;2023-06-14T05:36:24;96536.91;;;14.64;50.93
6668;BME280;3370;47.712;9.082;2023-06-14T05:38:50;96542.91;;;14.78;51.41
6668;BME280;3370;47.712;9.082;2023-06-14T05:41:16;96549.72;;;14.79;51.52
6668;BME280;3370;47.712;9.082;2023-06-14T05:43:42;96547.84;;;14.81;51.58
6668;BME280;3370;47.712;9.082;2023-06-14T05:46:08;96549.47;;;14.94;51.79
6668;BME280;3370;47.712;9.082;2023-06-14T05:48:34;96554.81;;;15.04;50.00
6668;BME280;3370;47.712;9.082;2023-06-14T05:51:00;96550.66;;;15.14;50.10
6668;BME280;3370;47.712;9.082;2023-06-14T05:53:26;96547.84;;;15.18;51.06
6668;BME280;3370;47.712;9.082;2023-06-14T05:55:51;96547.94;;;15.40;47.87
6668;BME280;3370;47.712;9.082;2023-06-14T05:58:19;96545.56;;;15.37;48.22
6668;BME280;3370;47.712;9.082;2023-06-14T06:00:45;96550.53;;;15.40;49.38
6668;BME280;3370;47.712;9.082;2023-06-14T06:03:12;96547.69;;;15.32;50.10
6668;BME280;3370;47.712;9.082;2023-06-14T06:05:39;96557.09;;;15.33;50.43
6668;BME280;3370;47.712;9.082;2023-06-14T06:08:05;96546.88;;;15.67;50.54
6668;BME280;3370;47.712;9.082;2023-06-14T06:10:31;96555.69;;;15.88;49.84
6668;BME280;3370;47.712;9.082;2023-06-14T06:12:57;96552.63;;;15.83;49.67
6668;BME280;3370;47.712;9.082;2023-06-14T06:15:23;96560.91;;;16.00;49.94
6668;BME280;3370;47.712;9.082;2023-06-14T06:17:48;96562.44;;;16.02;49.59
6668;BME280;3370;47.712;9.082;2023-06-14T06:20:14;96555.81;;;15.98;49.55
6668;BME280;3370;47.712;9.082;2023-06-14T06:22:40;96568.00;;;16.09;50.34
6668;BME280;3370;47.712;9.082;2023-06-14T06:25:07;96569.38;;;16.02;49.27
6668;BME280;3370;47.712;9.082;2023-06-14T06:27:33;96564.94;;;16.15;49.38
6668;BME280;3370;47.712;9.082;2023-06-14T06:29:58;96569.28;;;16.03;50.55
6668;BME280;3370;47.712;9.082;2023-06-14T06:32:24;96565.78;;;16.27;48.72
6668;BME280;3370;47.712;9.082;2023-06-14T06:34:50;96570.50;;;16.33;48.12
6668;BME280;3370;47.712;9.082;2023-06-14T06:37:17;96573.91;;;16.22;48.18
6668;BME280;3370;47.712;9.082;2023-06-14T06:39:43;96573.91;;;16.22;49.44
6668;BME280;3370;47.712;9.082;2023-06-14T06:42:09;96568.25;;;16.28;49.04
6668;BME280;3370;47.712;9.082;2023-06-14T06:44:36;96579.50;;;16.52;48.11
6668;BME280;3370;47.712;9.082;2023-06-14T06:47:02;96573.22;;;16.54;50.37
6668;BME280;3370;47.712;9.082;2023-06-14T06:49:28;96583.13;;;16.49;50.82
6668;BME280;3370;47.712;9.082;2023-06-14T06:52:03;96581.72;;;16.56;49.83
6668;BME280;3370;47.712;9.082;2023-06-14T06:54:29;96580.66;;;16.70;49.07
6668;BME280;3370;47.712;9.082;2023-06-14T06:56:55;96593.28;;;16.63;49.62
6668;BME280;3370;47.712;9.082;2023-06-14T06:59:21;96586.94;;;16.79;50.27
6668;BME280;3370;47.712;9.082;2023-06-14T07:01:47;96590.34;;;16.91;48.75
6668;BME280;3370;47.712;9.082;2023-06-14T07:04:13;96595.19;;;16.84;47.91
6668;BME280;3370;47.712;9.082;2023-06-14T07:06:39;96595.78;;;16.99;47.06
6668;BME280;3370;47.712;9.082;2023-06-14T07:09:05;96591.03;;;17.15;47.72
6668;BME280;3370;47.712;9.082;2023-06-14T07:11:34;96592.56;;;17.18;45.78
6668;BME280;3370;47.712;9.082;2023-06-14T07:13:59;96593.88;;;17.12;46.67
6668;BME280;3370;47.712;9.082;2023-06-14T07:16:25;96593.06;;;17.12;46.45
6668;BME280;3370;47.712;9.082;2023-06-14T07:18:51;96593.97;;;17.22;45.98
6668;BME280;3370;47.712;9.082;2023-06-14T07:21:18;96590.50;;;17.44;45.21
6668;BME280;3370;47.712;9.082;2023-06-14T07:23:43;96585.44;;;17.42;44.66
6668;BME280;3370;47.712;9.082;2023-06-14T07:26:09;96591.31;;;17.44;45.11
6668;BME280;3370;47.712;9.082;2023-06-14T07:28:35;96592.31;;;17.65;44.33
6668;BME280;3370;47.712;9.082;2023-06-14T07:31:01;96594.53;;;17.69;43.65
6668;BME280;3370;47.712;9.082;2023-06-14T07:33:28;96592.88;;;17.68;45.15
6668;BME280;3370;47.712;9.082;2023-06-14T07:35:53;96598.78;;;17.70;44.36
6668;BME280;3370;47.712;9.082;2023-06-14T07:38:19;96597.78;;;17.82;44.86
6668;BME280;3370;47.712;9.082;2023-06-14T07:40:45;96598.63;;;17.83;49.00
6668;BME280;3370;47.712;9.082;2023-06-14T07:43:11;96595.69;;;17.88;49.81
6668;BME280;3370;47.712;9.082;2023-06-14T07:45:37;96602.28;;;17.92;48.77
6668;BME280;3370;47.712;9.082;2023-06-14T07:48:03;96594.41;;;18.03;49.21
6668;BME280;3370;47.712;9.082;2023-06-14T07:50:29;96589.09;;;18.26;48.06
6668;BME280;3370;47.712;9.082;2023-06-14T07:52:56;96598.28;;;18.30;49.45
6668;BME280;3370;47.712;9.082;2023-06-14T07:55:21;96595.44;;;18.33;48.37
6668;BME280;3370;47.712;9.082;2023-06-14T07:57:47;96594.00;;;18.29;47.43
6668;BME280;3370;47.712;9.082;2023-06-14T08:00:14;96593.41;;;18.36;47.06
6668;BME280;3370;47.712;9.082;2023-06-14T08:02:43;96591.97;;;18.53;46.81
6668;BME280;3370;47.712;9.082;2023-06-14T08:05:10;96591.97;;;18.53;45.76
6668;BME280;3370;47.712;9.082;2023-06-14T08:07:37;96601.06;;;18.69;43.64
6668;BME280;3370;47.712;9.082;2023-06-14T08:10:05;96590.53;;;18.70;47.46
6668;BME280;3370;47.712;9.082;2023-06-14T08:12:31;96583.38;;;18.93;46.10
6668;BME280;3370;47.712;9.082;2023-06-14T08:14:56;96588.66;;;19.13;46.39
6668;BME280;3370;47.712;9.082;2023-06-14T08:17:22;96586.31;;;19.10;44.28
6668;BME280;3370;47.712;9.082;2023-06-14T08:19:48;96585.50;;;19.19;43.88
6668;BME280;3370;47.712;9.082;2023-06-14T08:22:14;96588.84;;;19.31;44.04
6668;BME280;3370;47.712;9.082;2023-06-14T08:24:39;96582.25;;;19.37;44.56
6668;BME280;3370;47.712;9.082;2023-06-14T08:27:06;96582.97;;;19.58;44.07
6668;BME280;3370;47.712;9.082;2023-06-14T08:29:32;96589.53;;;19.62;44.90
6668;BME280;3370;47.712;9.082;2023-06-14T08:31:58;96583.81;;;19.78;45.40
6668;BME280;3370;47.712;9.082;2023-06-14T08:34:24;96595.19;;;19.77;45.58
6668;BME280;3370;47.712;9.082;2023-06-14T08:36:53;96591.78;;;19.96;36.78
6668;BME280;3370;47.712;9.082;2023-06-14T08:39:18;96593.66;;;20.14;42.10
6668;BME280;3370;47.712;9.082;2023-06-14T08:41:46;96596.09;;;20.35;44.27
6668;BME280;3370;47.712;9.082;2023-06-14T08:44:16;96597.47;;;20.39;37.86
6668;BME280;3370;47.712;9.082;2023-06-14T08:46:43;96593.28;;;20.56;36.03
6668;BME280;3370;47.712;9.082;2023-06-14T08:49:12;96605.09;;;20.60;34.58
6668;BME280;3370;47.712;9.082;2023-06-14T08:51:38;96588.75;;;20.67;35.02
6668;BME280;3370;47.712;9.082;2023-06-14T08:54:06;96599.81;;;20.79;34.16
6668;BME280;3370;47.712;9.082;2023-06-14T08:56:33;96595.84;;;20.85;33.41
6668;BME280;3370;47.712;9.082;2023-06-14T08:59:00;96601.16;;;20.93;33.87
6668;BME280;3370;47.712;9.082;2023-06-14T09:01:36;96595.53;;;21.16;34.83
6668;BME280;3370;47.712;9.082;2023-06-14T09:04:03;96601.16;;;21.39;37.26
6668;BME280;3370;47.712;9.082;2023-06-14T09:06:31;96597.34;;;21.61;34.59
6668;BME280;3370;47.712;9.082;2023-06-14T09:08:57;96600.63;;;21.81;33.72
6668;BME280;3370;47.712;9.082;2023-06-14T09:11:23;96595.28;;;22.09;34.66
6668;BME280;3370;47.712;9.082;2023-06-14T09:13:50;96594.31;;;22.10;32.23
6668;BME280;3370;47.712;9.082;2023-06-14T09:16:16;96598.44;;;22.12;30.46
6668;BME280;3370;47.712;9.082;2023-06-14T09:18:44;96598.69;;;22.01;30.32
6668;BME280;3370;47.712;9.082;2023-06-14T09:21:14;96594.19;;;21.93;30.85
6668;BME280;3370;47.712;9.082;2023-06-14T09:23:46;96593.06;;;21.96;31.39
6668;BME280;3370;47.712;9.082;2023-06-14T09:26:18;96594.91;;;22.04;30.93
6668;BME280;3370;47.712;9.082;2023-06-14T09:28:49;96586.31;;;22.11;32.14
6668;BME280;3370;47.712;9.082;2023-06-14T09:31:20;96593.75;;;22.24;30.93
6668;BME280;3370;47.712;9.082;2023-06-14T09:33:48;96599.31;;;22.21;30.70
6668;BME280;3370;47.712;9.082;2023-06-14T09:36:22;96603.38;;;22.15;29.64
6668;BME280;3370;47.712;9.082;2023-06-14T09:38:58;96599.53;;;22.10;29.94
6668;BME280;3370;47.712;9.082;2023-06-14T09:44:05;96592.13;;;22.23;29.78
6668;BME280;3370;47.712;9.082;2023-06-14T09:46:32;96598.09;;;22.33;29.81
6668;BME280;3370;47.712;9.082;2023-06-14T09:48:59;96602.06;;;22.37;29.90
6668;BME280;3370;47.712;9.082;2023-06-14T09:51:26;96604.69;;;22.37;29.80
6668;BME280;3370;47.712;9.082;2023-06-14T09:53:58;96602.25;;;22.44;28.69
6668;BME280;3370;47.712;9.082;2023-06-14T09:56:35;96603.81;;;22.55;29.08
6668;BME280;3370;47.712;9.082;2023-06-14T09:59:05;96605.66;;;22.63;29.24
6668;BME280;3370;47.712;9.082;2023-06-14T10:01:33;96598.22;;;22.84;28.91
6668;BME280;3370;47.712;9.082;2023-06-14T10:04:07;96596.44;;;22.85;29.10
6668;BME280;3370;47.712;9.082;2023-06-14T10:06:37;96597.75;;;22.89;28.31
6668;BME280;3370;47.712;9.082;2023-06-14T10:09:09;96596.97;;;22.96;28.02
6668;BME280;3370;47.712;9.082;2023-06-14T10:11:36;96600.94;;;23.01;28.81
6668;BME280;3370;47.712;9.082;2023-06-14T10:14:05;96600.75;;;23.02;28.57
6668;BME280;3370;47.712;9.082;2023-06-14T10:17:00;96599.22;;;23.18;28.20
6668;BME280;3370;47.712;9.082;2023-06-14T10:19:42;96601.69;;;23.19;27.94
6668;BME280;3370;47.712;9.082;2023-06-14T10:22:12;96602.50;;;23.20;28.05
6668;BME280;3370;47.712;9.082;2023-06-14T10:24:44;96600.91;;;23.35;28.10
6668;BME280;3370;47.712;9.082;2023-06-14T10:27:14;96598.63;;;23.57;27.65
6668;BME280;3370;47.712;9.082;2023-06-14T10:32:18;96595.09;;;23.90;26.89
6668;BME280;3370;47.712;9.082;2023-06-14T10:34:45;96591.16;;;24.11;27.07
6668;BME280;3370;47.712;9.082;2023-06-14T10:37:14;96587.53;;;24.28;26.09
6668;BME280;3370;47.712;9.082;2023-06-14T10:39:42;96597.03;;;24.54;26.13
6668;BME280;3370;47.712;9.082;2023-06-14T10:42:12;96594.41;;;24.62;26.07
6668;BME280;3370;47.712;9.082;2023-06-14T10:44:54;96588.94;;;24.72;25.69
6668;BME280;3370;47.712;9.082;2023-06-14T10:47:34;96592.97;;;24.99;27.22
6668;BME280;3370;47.712;9.082;2023-06-14T10:50:05;96579.38;;;25.27;25.61
6668;BME280;3370;47.712;9.082;2023-06-14T10:52:41;96583.09;;;25.64;25.08
6668;BME280;3370;47.712;9.082;2023-06-14T10:55:17;96580.66;;;25.86;24.11
6668;BME280;3370;47.712;9.082;2023-06-14T10:57:50;96576.97;;;25.95;23.96
6668;BME280;3370;47.712;9.082;2023-06-14T11:00:27;96578.84;;;26.09;24.34
6668;BME280;3370;47.712;9.082;2023-06-14T11:03:43;96571.47;;;26.19;26.52
6668;BME280;3370;47.712;9.082;2023-06-14T11:06:15;96578.97;;;26.31;26.74
6668;BME280;3370;47.712;9.082;2023-06-14T11:11:38;96576.69;;;27.17;25.22
6668;BME280;3370;47.712;9.082;2023-06-14T11:14:07;96581.88;;;27.25;23.19
6668;BME280;3370;47.712;9.082;2023-06-14T11:16:33;96570.38;;;27.48;23.08
6668;BME280;3370;47.712;9.082;2023-06-14T11:19:01;96574.34;;;27.80;24.89
6668;BME280;3370;47.712;9.082;2023-06-14T11:21:28;96581.38;;;27.73;25.19
6668;BME280;3370;47.712;9.082;2023-06-14T11:23:57;96567.91;;;27.68;25.78
6668;BME280;3370;47.712;9.082;2023-06-14T11:26:30;96570.97;;;27.28;25.14
6668;BME280;3370;47.712;9.082;2023-06-14T11:29:00;96573.78;;;27.85;24.52
6668;BME280;3370;47.712;9.082;2023-06-14T11:31:28;96571.09;;;28.28;23.34
6668;BME280;3370;47.712;9.082;2023-06-14T11:33:56;96567.34;;;28.16;24.40
6668;BME280;3370;47.712;9.082;2023-06-14T11:36:33;96567.91;;;28.61;23.49
6668;BME280;3370;47.712;9.082;2023-06-14T11:39:00;96572.91;;;28.91;22.30
6668;BME280;3370;47.712;9.082;2023-06-14T11:41:36;96576.03;;;29.08;22.15
6668;BME280;3370;47.712;9.082;2023-06-14T11:44:03;96565.69;;;28.71;22.50
6668;BME280;3370;47.712;9.082;2023-06-14T11:46:29;96565.28;;;28.11;23.34
6668;BME280;3370;47.712;9.082;2023-06-14T11:48:55;96558.91;;;28.97;22.77
6668;BME280;3370;47.712;9.082;2023-06-14T11:51:20;96564.00;;;29.47;22.56
6668;BME280;3370;47.712;9.082;2023-06-14T11:53:46;96559.88;;;29.44;24.31
6668;BME280;3370;47.712;9.082;2023-06-14T11:56:13;96567.88;;;29.71;23.37
6668;BME280;3370;47.712;9.082;2023-06-14T11:58:39;96560.41;;;29.94;23.25
6668;BME280;3370;47.712;9.082;2023-06-14T12:01:05;96560.19;;;30.09;20.90
6668;BME280;3370;47.712;9.082;2023-06-14T12:03:31;96553.25;;;30.15;21.62
6668;BME280;3370;47.712;9.082;2023-06-14T12:06:07;96557.53;;;30.29;21.47
6668;BME280;3370;47.712;9.082;2023-06-14T12:08:37;96560.56;;;30.33;21.70
6668;BME280;3370;47.712;9.082;2023-06-14T12:11:15;96547.75;;;30.50;20.78
6668;BME280;3370;47.712;9.082;2023-06-14T12:13:43;96541.19;;;30.46;21.41
6668;BME280;3370;47.712;9.082;2023-06-14T12:16:10;96548.09;;;30.73;20.86
6668;BME280;3370;47.712;9.082;2023-06-14T12:18:39;96540.22;;;31.05;20.17
6668;BME280;3370;47.712;9.082;2023-06-14T12:21:06;96533.97;;;31.31;19.90
6668;BME280;3370;47.712;9.082;2023-06-14T12:23:49;96549.16;;;31.56;20.26
6668;BME280;3370;47.712;9.082;2023-06-14T12:26:17;96539.91;;;31.65;20.08
6668;BME280;3370;47.712;9.082;2023-06-14T12:28:44;96538.25;;;31.71;19.98
6668;BME280;3370;47.712;9.082;2023-06-14T12:31:15;96541.56;;;31.91;20.00
6668;BME280;3370;47.712;9.082;2023-06-14T12:33:42;96549.31;;;31.68;21.52
6668;BME280;3370;47.712;9.082;2023-06-14T12:36:09;96530.19;;;31.52;20.57
6668;BME280;3370;47.712;9.082;2023-06-14T12:38:36;96536.41;;;30.88;21.39
6668;BME280;3370;47.712;9.082;2023-06-14T12:41:03;96533.50;;;31.03;20.60
6668;BME280;3370;47.712;9.082;2023-06-14T12:43:29;96534.75;;;30.87;21.03
6668;BME280;3370;47.712;9.082;2023-06-14T12:45:55;96534.09;;;31.50;20.98
6668;BME280;3370;47.712;9.082;2023-06-14T12:48:21;96537.97;;;32.11;19.57
6668;BME280;3370;47.712;9.082;2023-06-14T12:50:48;96544.22;;;32.42;19.31
6668;BME280;3370;47.712;9.082;2023-06-14T12:53:14;96550.75;;;32.64;19.29
6668;BME280;3370;47.712;9.082;2023-06-14T12:55:40;96546.34;;;32.77;18.06
6668;BME280;3370;47.712;9.082;2023-06-14T12:58:06;96547.38;;;32.94;19.00
6668;BME280;3370;47.712;9.082;2023-06-14T13:00:32;96550.44;;;33.10;18.98
6668;BME280;3370;47.712;9.082;2023-06-14T13:02:58;96555.34;;;33.13;17.48
6668;BME280;3370;47.712;9.082;2023-06-14T13:05:24;96542.53;;;33.21;17.89
6668;BME280;3370;47.712;9.082;2023-06-14T13:07:50;96551.28;;;33.40;17.58
6668;BME280;3370;47.712;9.082;2023-06-14T13:10:17;96546.41;;;33.37;16.96
6668;BME280;3370;47.712;9.082;2023-06-14T13:12:43;96550.56;;;33.33;17.45
6668;BME280;3370;47.712;9.082;2023-06-14T13:15:09;96551.56;;;33.51;17.08
6668;BME280;3370;47.712;9.082;2023-06-14T13:17:36;96551.75;;;33.68;17.62
6668;BME280;3370;47.712;9.082;2023-06-14T13:20:07;96559.31;;;33.83;17.61
6668;BME280;3370;47.712;9.082;2023-06-14T13:22:35;96555.66;;;34.07;17.59
6668;BME280;3370;47.712;9.082;2023-06-14T13:25:01;96548.13;;;34.16;18.01
6668;BME280;3370;47.712;9.082;2023-06-14T13:27:28;96547.53;;;34.02;18.32
6668;BME280;3370;47.712;9.082;2023-06-14T13:29:54;96544.53;;;34.10;17.54
6668;BME280;3370;47.712;9.082;2023-06-14T13:32:22;96537.31;;;33.99;17.48
6668;BME280;3370;47.712;9.082;2023-06-14T13:34:48;96545.34;;;34.11;17.03